Time;durP1;ratioP1;P1;durP2;ratioP2;P2;SDS_P1;SDS_P2;PMS_P1;PMS_P2;Temp;Humidity;BMP_temperature;BMP_pressure;BME280_temperature;BME280_humidity;BME280_pressure;Samples;Min_cycle;Max_cycle;Signal;HPM_P1;HPM_P2
2022/04/03 00:01:09;;;;;;;22.83;11.45;;;;;;;;;;5051842;28;20204;-66
2022/04/03 00:03:35;;;;;;;14.05;10.15;;;;;;;;;;5051561;28;20322;-66
2022/04/03 00:06:01;;;;;;;21.08;11.23;;;;;;;;;;5053174;28;20627;-66
2022/04/03 00:08:28;;;;;;;15.33;10.70;;;;;;;;;;5053183;28;20230;-66
2022/04/03 00:10:54;;;;;;;21.13;9.88;;;;;;;;;;5053100;28;20489;-68
2022/04/03 00:13:20;;;;;;;16.55;11.35;;;;;;;;;;5053075;28;20184;-66
2022/04/03 00:15:46;;;;;;;17.02;10.70;;;;;;;;;;5053129;28;20164;-65
2022/04/03 00:18:12;;;;;;;18.00;10.60;;;;;;;;;;5053070;28;20521;-71
2022/04/03 00:20:38;;;;;;;16.17;10.15;;;;;;;;;;5052879;28;20410;-67
2022/04/03 00:23:06;;;;;;;17.50;10.60;;;;;;;;;;5052890;28;20214;-73
2022/04/03 00:25:32;;;;;;;16.42;10.23;;;;;;;;;;5051590;28;20358;-70
2022/04/03 00:27:58;;;;;;;17.35;10.95;;;;;;;;;;5052991;28;20630;-66
2022/04/03 00:30:24;;;;;;;17.02;11.55;;;;;;;;;;5052775;28;20191;-66
2022/04/03 00:32:50;;;;;;;19.20;11.30;;;;;;;;;;5052828;28;20167;-77
2022/04/03 00:35:16;;;;;;;17.80;10.50;;;;;;;;;;5052879;28;20748;-66
2022/04/03 00:37:42;;;;;;;21.20;12.03;;;;;;;;;;5056549;28;20183;-66
2022/04/03 00:40:09;;;;;;;22.58;11.57;;;;;;;;;;5056955;28;20433;-69
2022/04/03 00:42:38;;;;;;;20.15;10.70;;;;;;;;;;5055490;28;20522;-66
2022/04/03 00:45:05;;;;;;;24.30;12.10;;;;;;;;;;5056792;28;20207;-66
2022/04/03 00:47:31;;;;;;;19.63;12.18;;;;;;;;;;5056780;28;20258;-76
2022/04/03 00:49:58;;;;;;;17.65;10.85;;;;;;;;;;5056645;28;20176;-74
2022/04/03 00:52:24;;;;;;;17.70;10.60;;;;;;;;;;5056610;28;20620;-66
2022/04/03 00:54:51;;;;;;;19.10;11.15;;;;;;;;;;5056664;28;20175;-68
2022/04/03 00:57:17;;;;;;;18.15;11.38;;;;;;;;;;5056599;28;20180;-67
2022/04/03 00:59:43;;;;;;;18.52;11.75;;;;;;;;;;5056646;28;20510;-66
2022/04/03 01:02:10;;;;;;;17.90;11.45;;;;;;;;;;5056436;28;20209;-66
2022/04/03 01:04:39;;;;;;;12.98;9.07;;;;;;;;;;5056244;28;20231;-66
2022/04/03 01:07:06;;;;;;;15.63;9.68;;;;;;;;;;5056381;28;20166;-66
2022/04/03 01:09:32;;;;;;;20.33;10.77;;;;;;;;;;5056380;28;20178;-66
2022/04/03 01:11:58;;;;;;;17.38;10.23;;;;;;;;;;5056384;28;20171;-66
2022/04/03 01:14:34;;;;;;;22.30;12.30;;;;;;;;;;5055118;28;20168;-81
2022/04/03 01:17:01;;;;;;;19.17;11.30;;;;;;;;;;5056276;28;20403;-66
2022/04/03 01:19:27;;;;;;;19.85;11.88;;;;;;;;;;5056195;28;20168;-66
2022/04/03 01:21:53;;;;;;;20.10;11.20;;;;;;;;;;5056134;28;20279;-81
2022/04/03 01:24:20;;;;;;;21.67;12.27;;;;;;;;;;5056052;28;20222;-67
2022/04/03 01:26:46;;;;;;;22.73;11.85;;;;;;;;;;5056122;28;20179;-66
2022/04/03 01:29:12;;;;;;;28.83;13.20;;;;;;;;;;5055975;28;20175;-66
2022/04/03 01:31:38;;;;;;;22.27;13.10;;;;;;;;;;5054438;28;20204;-66
2022/04/03 01:34:04;;;;;;;21.38;14.15;;;;;;;;;;5055935;28;20414;-66
2022/04/03 01:36:31;;;;;;;21.52;12.80;;;;;;;;;;5055940;28;20165;-66
2022/04/03 01:38:57;;;;;;;24.90;12.38;;;;;;;;;;5055797;28;20207;-66
2022/04/03 01:41:23;;;;;;;22.60;12.53;;;;;;;;;;5055753;28;20203;-66
2022/04/03 01:43:49;;;;;;;22.23;12.73;;;;;;;;;;5055578;28;21065;-66
2022/04/03 01:46:15;;;;;;;21.53;12.10;;;;;;;;;;5055790;28;20406;-65
2022/04/03 01:48:41;;;;;;;22.55;12.63;;;;;;;;;;5054728;28;20426;-65
2022/04/03 01:51:07;;;;;;;18.15;12.10;;;;;;;;;;5054281;28;20179;-65
2022/04/03 01:53:33;;;;;;;20.48;11.68;;;;;;;;;;5055534;28;20164;-66
2022/04/03 01:56:00;;;;;;;18.85;11.20;;;;;;;;;;5054369;28;20180;-67
2022/04/03 01:58:26;;;;;;;20.50;11.55;;;;;;;;;;5055398;28;20203;-68
2022/04/03 02:00:52;;;;;;;19.20;10.40;;;;;;;;;;5055372;28;20600;-69
2022/04/03 02:03:18;;;;;;;17.50;10.33;;;;;;;;;;5055073;28;20216;-65
2022/04/03 02:05:44;;;;;;;15.40;10.50;;;;;;;;;;5055313;28;20504;-66
2022/04/03 02:08:10;;;;;;;15.85;9.73;;;;;;;;;;5055291;28;20438;-73
2022/04/03 02:10:36;;;;;;;19.30;11.40;;;;;;;;;;5055082;28;20568;-68
2022/04/03 02:13:02;;;;;;;16.93;10.40;;;;;;;;;;5055183;28;20407;-67
2022/04/03 02:15:28;;;;;;;17.60;11.50;;;;;;;;;;5054969;28;20732;-66
2022/04/03 02:17:54;;;;;;;19.63;10.77;;;;;;;;;;5055147;28;20445;-66
2022/04/03 02:20:20;;;;;;;19.10;11.17;;;;;;;;;;5055111;28;20417;-66
2022/04/03 02:22:46;;;;;;;21.30;11.40;;;;;;;;;;5055121;28;20507;-67
2022/04/03 02:25:13;;;;;;;17.00;11.10;;;;;;;;;;5054877;28;20478;-66
2022/04/03 02:27:40;;;;;;;18.90;11.13;;;;;;;;;;5054923;28;20972;-66
2022/04/03 02:30:09;;;;;;;17.55;11.15;;;;;;;;;;5054896;28;20173;-65
2022/04/03 02:32:36;;;;;;;18.02;10.05;;;;;;;;;;5054776;28;20185;-68
2022/04/03 02:35:03;;;;;;;21.13;11.73;;;;;;;;;;5054822;28;20618;-73
2022/04/03 02:37:29;;;;;;;19.33;11.85;;;;;;;;;;5054741;28;20177;-73
2022/04/03 02:39:55;;;;;;;17.77;10.60;;;;;;;;;;5054702;28;20694;-71
2022/04/03 02:42:22;;;;;;;17.83;9.93;;;;;;;;;;5054613;28;20414;-66
2022/04/03 02:44:48;;;;;;;17.30;11.50;;;;;;;;;;5054509;28;20557;-70
2022/04/03 02:47:14;;;;;;;18.80;10.88;;;;;;;;;;5054592;28;20197;-74
2022/04/03 02:49:40;;;;;;;18.70;11.35;;;;;;;;;;5054433;28;20210;-66
2022/04/03 02:52:06;;;;;;;18.45;11.10;;;;;;;;;;5054461;28;20171;-66
2022/04/03 02:54:32;;;;;;;16.50;10.90;;;;;;;;;;5054547;28;20260;-66
2022/04/03 02:56:58;;;;;;;21.52;11.25;;;;;;;;;;5053009;28;20803;-66
2022/04/03 02:59:24;;;;;;;19.23;11.80;;;;;;;;;;5054206;28;20182;-66
2022/04/03 03:01:50;;;;;;;16.23;10.55;;;;;;;;;;5054239;28;20523;-65
2022/04/03 03:04:16;;;;;;;17.70;11.80;;;;;;;;;;5053900;28;20335;-66
2022/04/03 03:06:42;;;;;;;17.17;10.63;;;;;;;;;;5054205;28;20884;-66
2022/04/03 03:09:08;;;;;;;17.52;10.65;;;;;;;;;;5054038;28;20497;-65
2022/04/03 03:11:34;;;;;;;19.17;10.60;;;;;;;;;;5054089;28;20224;-66
2022/04/03 03:14:00;;;;;;;17.13;10.93;;;;;;;;;;5053999;28;20176;-70
2022/04/03 03:16:26;;;;;;;17.27;10.60;;;;;;;;;;5053866;28;20844;-65
2022/04/03 03:18:52;;;;;;;15.17;9.90;;;;;;;;;;5053991;28;20424;-66
2022/04/03 03:21:18;;;;;;;17.23;10.50;;;;;;;;;;5054027;28;20503;-65
2022/04/03 03:23:44;;;;;;;18.63;10.47;;;;;;;;;;5052515;28;20462;-66
2022/04/03 03:26:16;;;;;;;19.00;10.10;;;;;;;;;;5053822;28;20411;-65
2022/04/03 03:28:42;;;;;;;16.15;9.43;;;;;;;;;;5053318;28;20390;-67
2022/04/03 03:31:08;;;;;;;14.30;9.00;;;;;;;;;;5053650;28;20275;-65
2022/04/03 03:33:34;;;;;;;14.35;8.77;;;;;;;;;;5053639;28;20427;-69
2022/04/03 03:36:00;;;;;;;16.30;9.15;;;;;;;;;;5053641;28;20172;-66
2022/04/03 03:38:27;;;;;;;15.93;9.93;;;;;;;;;;5053613;28;20174;-76
2022/04/03 03:40:53;;;;;;;14.13;9.20;;;;;;;;;;5052215;28;20186;-66
2022/04/03 03:43:19;;;;;;;15.85;9.35;;;;;;;;;;5053349;28;20226;-65
2022/04/03 03:45:45;;;;;;;16.70;9.50;;;;;;;;;;5053425;28;20176;-71
2022/04/03 03:48:11;;;;;;;16.70;9.82;;;;;;;;;;5053370;28;20536;-65
2022/04/03 03:50:37;;;;;;;17.30;10.30;;;;;;;;;;5053424;28;20176;-65
2022/04/03 03:53:04;;;;;;;13.45;9.43;;;;;;;;;;5053315;28;20172;-65
2022/04/03 03:55:30;;;;;;;16.80;10.10;;;;;;;;;;5052113;28;20185;-65
2022/04/03 03:57:56;;;;;;;15.80;10.13;;;;;;;;;;5053289;28;20187;-65
2022/04/03 04:00:22;;;;;;;14.20;8.43;;;;;;;;;;5053263;28;20229;-68
2022/04/03 04:02:48;;;;;;;16.70;9.40;;;;;;;;;;5052883;28;20310;-65
2022/04/03 04:05:14;;;;;;;19.88;11.07;;;;;;;;;;5053111;28;20473;-66
2022/04/03 04:07:41;;;;;;;15.10;9.13;;;;;;;;;;5053071;28;20169;-67
2022/04/03 04:10:07;;;;;;;15.60;9.30;;;;;;;;;;5053151;28;20256;-65
2022/04/03 04:12:34;;;;;;;15.77;9.93;;;;;;;;;;5052652;28;20260;-65
2022/04/03 04:15:00;;;;;;;18.85;9.55;;;;;;;;;;5053021;28;20179;-69
2022/04/03 04:17:26;;;;;;;17.60;10.37;;;;;;;;;;5052982;28;20168;-65
2022/04/03 04:19:52;;;;;;;14.32;9.13;;;;;;;;;;5053153;28;20790;-80
2022/04/03 04:22:18;;;;;;;16.13;10.13;;;;;;;;;;5053029;28;20219;-78
2022/04/03 04:24:44;;;;;;;15.13;9.70;;;;;;;;;;5053190;28;20514;-79
2022/04/03 04:27:11;;;;;;;16.43;10.03;;;;;;;;;;5053381;28;20416;-79
2022/04/03 04:29:37;;;;;;;19.63;9.80;;;;;;;;;;5053349;28;20420;-80
2022/04/03 04:32:03;;;;;;;18.67;10.35;;;;;;;;;;5052801;28;20188;-73
2022/04/03 04:34:29;;;;;;;21.42;11.52;;;;;;;;;;5052936;28;20233;-77
2022/04/03 04:36:55;;;;;;;17.30;11.00;;;;;;;;;;5051720;28;20179;-78
2022/04/03 04:39:21;;;;;;;17.88;10.20;;;;;;;;;;5052880;28;20411;-79
2022/04/03 04:41:47;;;;;;;16.38;10.27;;;;;;;;;;5052719;28;20182;-79
2022/04/03 04:44:13;;;;;;;24.05;9.80;;;;;;;;;;5052731;28;20211;-74
2022/04/03 04:46:39;;;;;;;15.70;10.13;;;;;;;;;;5051500;28;20187;-74
2022/04/03 04:49:05;;;;;;;17.23;11.07;;;;;;;;;;5052847;28;20419;-75
2022/04/03 04:51:31;;;;;;;17.83;10.70;;;;;;;;;;5052786;28;20502;-71
2022/04/03 04:53:57;;;;;;;17.92;11.10;;;;;;;;;;5052679;28;20421;-75
2022/04/03 04:56:23;;;;;;;19.08;11.45;;;;;;;;;;5052791;28;20205;-78
2022/04/03 04:58:49;;;;;;;19.02;10.70;;;;;;;;;;5051470;28;20187;-76
2022/04/03 05:01:15;;;;;;;17.60;10.80;;;;;;;;;;5052485;28;20196;-78
2022/04/03 05:03:42;;;;;;;20.85;10.45;;;;;;;;;;5052336;28;20527;-77
2022/04/03 05:06:12;;;;;;;15.00;9.98;;;;;;;;;;5052601;28;20695;-75
2022/04/03 05:08:38;;;;;;;18.45;9.90;;;;;;;;;;5051339;28;20585;-74
2022/04/03 05:11:04;;;;;;;16.60;11.40;;;;;;;;;;5052580;28;20167;-78
2022/04/03 05:13:30;;;;;;;16.35;10.02;;;;;;;;;;5052554;28;20182;-78
2022/04/03 05:15:56;;;;;;;17.10;10.60;;;;;;;;;;5052629;28;20217;-76
2022/04/03 05:18:23;;;;;;;18.48;10.77;;;;;;;;;;5052425;28;20176;-73
2022/04/03 05:20:49;;;;;;;16.30;10.13;;;;;;;;;;5052644;28;20222;-77
2022/04/03 05:23:15;;;;;;;15.90;9.27;;;;;;;;;;5053446;28;20500;-79
2022/04/03 05:25:41;;;;;;;14.50;10.00;;;;;;;;;;5056018;28;20290;-75
2022/04/03 05:28:08;;;;;;;16.75;10.75;;;;;;;;;;5055989;28;20206;-77
2022/04/03 05:30:35;;;;;;;17.10;10.35;;;;;;;;;;5056045;28;20543;-75
2022/04/03 05:33:01;;;;;;;17.30;10.38;;;;;;;;;;5056047;28;20169;-72
2022/04/03 05:35:27;;;;;;;17.88;10.07;;;;;;;;;;5055977;28;20341;-73
2022/04/03 05:37:53;;;;;;;16.90;10.03;;;;;;;;;;5055853;28;20687;-70
2022/04/03 05:40:19;;;;;;;14.93;10.30;;;;;;;;;;5055832;28;20415;-73
2022/04/03 05:42:45;;;;;;;16.93;9.83;;;;;;;;;;5055633;28;20766;-74
2022/04/03 05:45:11;;;;;;;19.60;11.07;;;;;;;;;;5055794;28;20461;-72
2022/04/03 05:47:37;;;;;;;17.67;10.40;;;;;;;;;;5055680;28;20249;-75
2022/04/03 05:50:05;;;;;;;17.63;10.10;;;;;;;;;;5055667;28;20179;-75
2022/04/03 05:52:41;;;;;;;13.20;8.93;;;;;;;;;;5055545;28;20173;-73
2022/04/03 05:55:08;;;;;;;17.33;9.55;;;;;;;;;;5054237;28;20650;-71
2022/04/03 05:57:34;;;;;;;18.08;9.45;;;;;;;;;;5055569;28;20176;-74
2022/04/03 06:00:00;;;;;;;14.27;8.95;;;;;;;;;;5055449;28;20169;-76
2022/04/03 06:02:26;;;;;;;15.83;9.67;;;;;;;;;;5055399;28;20194;-75
2022/04/03 06:04:53;;;;;;;13.05;8.95;;;;;;;;;;5055199;28;20469;-74
2022/04/03 06:07:18;;;;;;;14.82;9.20;;;;;;;;;;5055316;28;20172;-72
2022/04/03 06:09:44;;;;;;;14.93;9.33;;;;;;;;;;5055331;28;20650;-75
2022/04/03 06:12:10;;;;;;;13.50;9.13;;;;;;;;;;5055269;28;20831;-74
2022/04/03 06:14:36;;;;;;;18.40;9.65;;;;;;;;;;5055190;28;20495;-72
2022/04/03 06:17:03;;;;;;;15.02;9.15;;;;;;;;;;5055190;28;20665;-75
2022/04/03 06:19:29;;;;;;;14.48;9.50;;;;;;;;;;5055293;28;20168;-73
2022/04/03 06:21:54;;;;;;;15.90;10.17;;;;;;;;;;5055060;28;20178;-74
2022/04/03 06:24:20;;;;;;;13.30;8.07;;;;;;;;;;5055040;28;20459;-72
2022/04/03 06:26:46;;;;;;;16.30;8.65;;;;;;;;;;5054932;28;20406;-68
2022/04/03 06:29:13;;;;;;;10.23;7.50;;;;;;;;;;5053762;28;20175;-76
2022/04/03 06:31:39;;;;;;;11.73;7.83;;;;;;;;;;5053506;28;20435;-73
2022/04/03 06:34:05;;;;;;;10.63;6.88;;;;;;;;;;5054510;28;20792;-74
2022/04/03 06:36:31;;;;;;;9.10;6.43;;;;;;;;;;5054848;28;20677;-74
2022/04/03 06:38:57;;;;;;;9.50;6.40;;;;;;;;;;5054854;28;20406;-73
2022/04/03 06:41:23;;;;;;;9.77;6.25;;;;;;;;;;5054594;28;20390;-75
2022/04/03 06:43:49;;;;;;;12.90;6.60;;;;;;;;;;5054582;28;20188;-75
2022/04/03 06:46:15;;;;;;;7.75;5.93;;;;;;;;;;5054656;28;20174;-73
2022/04/03 06:48:41;;;;;;;11.02;7.05;;;;;;;;;;5054374;28;20171;-68
2022/04/03 06:51:07;;;;;;;10.90;6.40;;;;;;;;;;5054505;28;20214;-72
2022/04/03 06:53:33;;;;;;;9.47;6.20;;;;;;;;;;5054507;28;20199;-72
2022/04/03 06:55:59;;;;;;;12.60;6.80;;;;;;;;;;5053200;28;20437;-74
2022/04/03 06:58:25;;;;;;;10.88;7.03;;;;;;;;;;5054312;28;20404;-75
2022/04/03 07:00:51;;;;;;;10.55;7.25;;;;;;;;;;5052913;28;20292;-75
2022/04/03 07:03:17;;;;;;;9.00;6.90;;;;;;;;;;5054013;28;20629;-74
2022/04/03 07:05:43;;;;;;;12.27;7.00;;;;;;;;;;5054256;28;20469;-70
2022/04/03 07:08:09;;;;;;;9.98;6.90;;;;;;;;;;5054033;28;20749;-74
2022/04/03 07:10:35;;;;;;;8.53;5.83;;;;;;;;;;5053994;28;20659;-74
2022/04/03 07:13:02;;;;;;;8.65;6.15;;;;;;;;;;5053994;28;20407;-75
2022/04/03 07:15:28;;;;;;;9.10;6.05;;;;;;;;;;5053972;28;20175;-70
2022/04/03 07:17:54;;;;;;;9.50;6.30;;;;;;;;;;5052715;28;20185;-75
2022/04/03 07:20:20;;;;;;;8.13;5.90;;;;;;;;;;5052636;28;20917;-74
2022/04/03 07:22:46;;;;;;;12.52;6.03;;;;;;;;;;5053784;28;20421;-74
2022/04/03 07:25:12;;;;;;;9.55;5.80;;;;;;;;;;5053691;28;20673;-75
2022/04/03 07:27:39;;;;;;;11.40;6.47;;;;;;;;;;5053640;28;20208;-76
2022/04/03 07:30:06;;;;;;;7.95;6.05;;;;;;;;;;5053659;28;20173;-75
2022/04/03 07:32:32;;;;;;;8.07;5.67;;;;;;;;;;5053601;28;20615;-73
2022/04/03 07:34:58;;;;;;;7.78;5.80;;;;;;;;;;5053653;28;20419;-75
2022/04/03 07:37:24;;;;;;;9.98;6.35;;;;;;;;;;5053700;28;20156;-75
2022/04/03 07:39:51;;;;;;;10.37;6.60;;;;;;;;;;5053669;28;20191;-75
2022/04/03 07:42:17;;;;;;;9.50;6.33;;;;;;;;;;5053557;28;20419;-76
2022/04/03 07:44:44;;;;;;;10.83;6.63;;;;;;;;;;5052085;28;20556;-74
2022/04/03 07:47:11;;;;;;;8.80;5.70;;;;;;;;;;5051439;28;20500;-75
2022/04/03 07:49:37;;;;;;;8.67;6.10;;;;;;;;;;5053362;28;20482;-74
2022/04/03 07:52:04;;;;;;;8.83;6.50;;;;;;;;;;5053335;28;20407;-75
2022/04/03 07:54:30;;;;;;;12.20;7.67;;;;;;;;;;5053518;28;20886;-75
2022/04/03 07:56:56;;;;;;;8.27;6.83;;;;;;;;;;5053341;28;20456;-76
2022/04/03 07:59:22;;;;;;;9.23;6.28;;;;;;;;;;5053382;28;20453;-76
2022/04/03 08:01:48;;;;;;;8.67;6.27;;;;;;;;;;5053183;28;20257;-76
2022/04/03 08:04:14;;;;;;;8.60;6.50;;;;;;;;;;5052930;28;20571;-76
2022/04/03 08:06:41;;;;;;;11.23;5.70;;;;;;;;;;5053114;28;20525;-76
2022/04/03 08:09:07;;;;;;;9.43;6.70;;;;;;;;;;5053273;28;20406;-76
2022/04/03 08:11:33;;;;;;;11.03;6.97;;;;;;;;;;5051773;28;20785;-72
2022/04/03 08:14:00;;;;;;;8.85;6.22;;;;;;;;;;5053147;28;20407;-76
2022/04/03 08:16:26;;;;;;;9.60;6.45;;;;;;;;;;5053196;28;20190;-70
2022/04/03 08:18:52;;;;;;;9.45;6.00;;;;;;;;;;5053005;28;20494;-75
2022/04/03 08:21:18;;;;;;;9.07;5.70;;;;;;;;;;5053036;28;20682;-77
2022/04/03 08:23:45;;;;;;;9.95;6.32;;;;;;;;;;5052889;28;20894;-76
2022/04/03 08:26:14;;;;;;;7.50;6.10;;;;;;;;;;5052987;28;20197;-77
2022/04/03 08:28:40;;;;;;;9.02;5.95;;;;;;;;;;5052891;28;20864;-76
2022/04/03 08:31:06;;;;;;;7.23;5.70;;;;;;;;;;5052850;28;20243;-76
2022/04/03 08:33:32;;;;;;;10.23;6.60;;;;;;;;;;5051679;28;20762;-76
2022/04/03 08:35:58;;;;;;;9.63;6.40;;;;;;;;;;5052911;28;20408;-74
2022/04/03 08:38:24;;;;;;;6.60;5.60;;;;;;;;;;5052805;28;20782;-77
2022/04/03 08:40:50;;;;;;;6.93;5.90;;;;;;;;;;5052877;28;20402;-76
2022/04/03 08:43:17;;;;;;;7.90;6.10;;;;;;;;;;5052923;28;20497;-76
2022/04/03 08:45:43;;;;;;;8.97;5.80;;;;;;;;;;5052595;28;20475;-76
2022/04/03 08:48:09;;;;;;;8.23;5.67;;;;;;;;;;5052630;28;20430;-76
2022/04/03 08:50:36;;;;;;;9.57;6.03;;;;;;;;;;5052802;28;20494;-76
2022/04/03 08:53:04;;;;;;;8.90;5.97;;;;;;;;;;5052722;28;20403;-76
2022/04/03 08:55:31;;;;;;;8.57;6.33;;;;;;;;;;5052782;28;20438;-77
2022/04/03 08:57:57;;;;;;;9.57;6.63;;;;;;;;;;5054894;28;20414;-77
2022/04/03 09:00:23;;;;;;;7.55;5.72;;;;;;;;;;5056407;28;20972;-76
2022/04/03 09:02:52;;;;;;;9.03;5.70;;;;;;;;;;5056300;28;20244;-77
2022/04/03 09:05:19;;;;;;;8.50;6.27;;;;;;;;;;5056638;28;20497;-76
2022/04/03 09:07:59;;;;;;;7.50;5.60;;;;;;;;;;5056476;28;20399;-77
2022/04/03 09:10:25;;;;;;;10.63;5.40;;;;;;;;;;5056511;28;20512;-77
2022/04/03 09:12:51;;;;;;;6.83;5.50;;;;;;;;;;5056453;28;20921;-78
2022/04/03 09:15:19;;;;;;;6.07;4.67;;;;;;;;;;5056449;28;20410;-76
2022/04/03 09:17:48;;;;;;;7.10;5.43;;;;;;;;;;5055172;28;20428;-75
2022/04/03 09:20:19;;;;;;;6.67;5.97;;;;;;;;;;5056202;28;20390;-77
2022/04/03 09:22:48;;;;;;;7.30;5.83;;;;;;;;;;5056251;28;20500;-74
2022/04/03 09:25:16;;;;;;;7.97;5.60;;;;;;;;;;5056034;28;20466;-75
2022/04/03 09:27:52;;;;;;;8.80;5.85;;;;;;;;;;5056027;28;20436;-75
2022/04/03 09:30:19;;;;;;;9.47;6.50;;;;;;;;;;5054719;28;20690;-76
2022/04/03 09:32:47;;;;;;;8.17;5.33;;;;;;;;;;5055966;28;20400;-78
2022/04/03 09:35:13;;;;;;;7.40;5.47;;;;;;;;;;5055892;28;20965;-74
2022/04/03 09:37:39;;;;;;;6.93;4.50;;;;;;;;;;5055992;28;20398;-77
2022/04/03 09:40:06;;;;;;;6.10;4.77;;;;;;;;;;5054626;28;20933;-76
2022/04/03 09:42:32;;;;;;;5.77;4.30;;;;;;;;;;5055731;28;20395;-76
2022/04/03 09:44:58;;;;;;;6.57;5.00;;;;;;;;;;5055743;28;20470;-76
2022/04/03 09:47:33;;;;;;;9.50;5.10;;;;;;;;;;5055776;28;20417;-78
2022/04/03 09:50:04;;;;;;;4.97;4.27;;;;;;;;;;5055796;28;20437;-76
2022/04/03 09:52:37;;;;;;;6.30;4.33;;;;;;;;;;5055635;28;20497;-77
2022/04/03 09:55:19;;;;;;;5.90;4.73;;;;;;;;;;5055641;28;20456;-77
2022/04/03 09:57:46;;;;;;;8.23;5.10;;;;;;;;;;5055515;28;20467;-77
2022/04/03 10:00:14;;;;;;;8.00;4.50;;;;;;;;;;5055392;28;20441;-76
2022/04/03 10:02:45;;;;;;;7.10;4.03;;;;;;;;;;5055124;28;20403;-74
2022/04/03 10:05:12;;;;;;;9.27;4.20;;;;;;;;;;5055313;28;20498;-75
2022/04/03 10:07:40;;;;;;;6.50;4.80;;;;;;;;;;5055412;28;20551;-75
2022/04/03 10:10:06;;;;;;;8.67;4.30;;;;;;;;;;5053369;28;20412;-74
2022/04/03 10:12:32;;;;;;;5.10;4.38;;;;;;;;;;5055320;28;20407;-79
2022/04/03 10:14:59;;;;;;;6.40;4.70;;;;;;;;;;5055287;28;20192;-77
2022/04/03 10:17:25;;;;;;;5.60;5.00;;;;;;;;;;5055233;28;20239;-77
2022/04/03 10:19:52;;;;;;;6.10;5.17;;;;;;;;;;5055274;28;20196;-76
2022/04/03 10:22:29;;;;;;;5.40;4.27;;;;;;;;;;5054857;28;20909;-77
2022/04/03 10:25:00;;;;;;;5.28;4.03;;;;;;;;;;5055029;28;20470;-76
2022/04/03 10:27:39;;;;;;;7.38;4.70;;;;;;;;;;5054811;28;20172;-76
2022/04/03 10:30:10;;;;;;;7.50;4.72;;;;;;;;;;5055004;28;20174;-79
2022/04/03 10:32:37;;;;;;;5.25;4.75;;;;;;;;;;5054914;28;20172;-75
2022/04/03 10:35:03;;;;;;;5.25;4.75;;;;;;;;;;5054785;28;20230;-73
2022/04/03 10:37:42;;;;;;;5.28;4.43;;;;;;;;;;5054595;28;20171;-76
2022/04/03 10:40:21;;;;;;;4.83;4.30;;;;;;;;;;5054793;28;20252;-78
2022/04/03 10:43:01;;;;;;;6.10;5.13;;;;;;;;;;5054767;28;20924;-73
2022/04/03 10:45:30;;;;;;;8.10;5.93;;;;;;;;;;5054664;28;20454;-76
2022/04/03 10:48:14;;;;;;;8.63;5.50;;;;;;;;;;5054529;28;20643;-78
2022/04/03 10:50:56;;;;;;;7.60;5.13;;;;;;;;;;5054537;28;20444;-76
2022/04/03 10:53:27;;;;;;;7.97;5.27;;;;;;;;;;5054579;28;20411;-78
2022/04/03 10:55:56;;;;;;;6.93;5.03;;;;;;;;;;5054528;28;20451;-78
2022/04/03 10:58:22;;;;;;;6.40;4.90;;;;;;;;;;5054532;28;20458;-78
2022/04/03 11:00:49;;;;;;;6.77;4.63;;;;;;;;;;5054215;28;20773;-75
2022/04/03 11:03:15;;;;;;;7.03;4.60;;;;;;;;;;5054068;28;20455;-79
2022/04/03 11:05:46;;;;;;;4.50;3.80;;;;;;;;;;5054165;28;20469;-76
2022/04/03 11:08:12;;;;;;;5.60;4.53;;;;;;;;;;5054173;28;20494;-77
2022/04/03 11:10:52;;;;;;;5.70;4.43;;;;;;;;;;5054154;28;20497;-77
2022/04/03 11:13:19;;;;;;;5.27;4.13;;;;;;;;;;5054128;28;20407;-77
2022/04/03 11:15:52;;;;;;;6.63;4.53;;;;;;;;;;5054094;28;20771;-75
2022/04/03 11:18:27;;;;;;;5.60;4.40;;;;;;;;;;5053941;28;20418;-77
2022/04/03 11:21:05;;;;;;;5.43;4.50;;;;;;;;;;5051636;28;20425;-80
2022/04/03 11:23:31;;;;;;;5.13;3.83;;;;;;;;;;5053889;28;20410;-78
2022/04/03 11:25:58;;;;;;;8.50;4.30;;;;;;;;;;5053879;28;20551;-79
2022/04/03 11:28:25;;;;;;;4.77;3.67;;;;;;;;;;5041595;28;20418;-74
2022/04/03 11:30:52;;;;;;;6.87;3.63;;;;;;;;;;5039716;28;20465;-80
2022/04/03 11:33:18;;;;;;;4.70;3.90;;;;;;;;;;5033616;28;20416;-78
2022/04/03 11:35:46;;;;;;;4.63;3.60;;;;;;;;;;5034434;28;20927;-80
2022/04/03 11:38:12;;;;;;;4.17;3.47;;;;;;;;;;5037336;28;20433;-80
2022/04/03 11:40:39;;;;;;;4.87;3.93;;;;;;;;;;5042285;28;20423;-67
2022/04/03 11:43:07;;;;;;;4.93;3.67;;;;;;;;;;5033683;28;20957;-78
2022/04/03 11:45:33;;;;;;;5.30;3.33;;;;;;;;;;5051642;28;20469;-77
2022/04/03 11:48:18;;;;;;;5.00;3.47;;;;;;;;;;5053319;28;20415;-76
2022/04/03 11:50:44;;;;;;;4.80;3.13;;;;;;;;;;5053371;28;20489;-70
2022/04/03 11:53:11;;;;;;;6.70;4.00;;;;;;;;;;5052093;28;20453;-80
2022/04/03 11:55:38;;;;;;;4.33;3.53;;;;;;;;;;5052352;28;20852;-80
2022/04/03 11:58:04;;;;;;;5.73;3.60;;;;;;;;;;5032122;28;20460;-77
2022/04/03 12:00:33;;;;;;;3.50;3.10;;;;;;;;;;5031996;28;20825;-70
2022/04/03 12:03:00;;;;;;;5.80;3.83;;;;;;;;;;5033109;28;20992;-79
2022/04/03 12:05:26;;;;;;;5.43;3.93;;;;;;;;;;5033223;28;20467;-78
2022/04/03 12:07:52;;;;;;;13.93;4.43;;;;;;;;;;5033151;28;20400;-70
2022/04/03 12:10:28;;;;;;;7.67;4.77;;;;;;;;;;5033057;28;20421;-73
2022/04/03 12:12:58;;;;;;;6.87;3.67;;;;;;;;;;5033128;28;20399;-80
2022/04/03 12:15:25;;;;;;;5.60;3.47;;;;;;;;;;5033147;28;20395;-80
2022/04/03 12:17:55;;;;;;;5.70;3.73;;;;;;;;;;5033147;28;20513;-80
2022/04/03 12:20:21;;;;;;;5.70;4.07;;;;;;;;;;5033527;28;20876;-80
2022/04/03 12:22:51;;;;;;;4.17;3.33;;;;;;;;;;5052943;28;20446;-77
2022/04/03 12:25:17;;;;;;;5.50;3.90;;;;;;;;;;5052205;28;20547;-76
2022/04/03 12:27:43;;;;;;;6.87;3.80;;;;;;;;;;5040825;28;20429;-77
2022/04/03 12:30:11;;;;;;;5.07;3.80;;;;;;;;;;5044115;28;20439;-82
2022/04/03 12:32:42;;;;;;;5.47;4.00;;;;;;;;;;5054579;28;20424;-74
2022/04/03 12:35:13;;;;;;;6.30;3.67;;;;;;;;;;5038302;28;20426;-77
2022/04/03 12:37:40;;;;;;;7.53;4.00;;;;;;;;;;5037037;28;20426;-79
2022/04/03 12:40:08;;;;;;;7.77;4.70;;;;;;;;;;5037025;28;20427;-78
2022/04/03 12:42:43;;;;;;;6.70;4.23;;;;;;;;;;5039718;28;20426;-81
2022/04/03 12:45:16;;;;;;;7.40;4.10;;;;;;;;;;5045958;28;20476;-79
2022/04/03 12:47:44;;;;;;;10.27;5.10;;;;;;;;;;5057029;28;20408;-80
2022/04/03 12:50:11;;;;;;;5.33;4.10;;;;;;;;;;5047513;28;20485;-80
2022/04/03 12:52:51;;;;;;;6.33;4.63;;;;;;;;;;5036735;28;20410;-79
2022/04/03 12:55:23;;;;;;;5.53;4.33;;;;;;;;;;5037765;28;20439;-81
2022/04/03 13:01:00;;;;;;;7.20;4.90;;;;;;;;;;5036605;28;20436;-78
2022/04/03 13:03:30;;;;;;;4.33;3.93;;;;;;;;;;5036104;28;20824;-74
2022/04/03 13:05:57;;;;;;;6.63;4.23;;;;;;;;;;5036523;28;20992;-73
2022/04/03 13:08:23;;;;;;;9.20;4.70;;;;;;;;;;5035323;28;20411;-77
2022/04/03 13:10:52;;;;;;;7.47;3.80;;;;;;;;;;5036398;28;20415;-76
2022/04/03 13:13:22;;;;;;;4.63;4.00;;;;;;;;;;5036486;28;20744;-72
2022/04/03 13:15:48;;;;;;;5.80;4.50;;;;;;;;;;5036668;28;20491;-77
2022/04/03 13:18:14;;;;;;;5.97;4.30;;;;;;;;;;5036458;28;20415;-67
2022/04/03 13:20:40;;;;;;;6.67;4.17;;;;;;;;;;5036206;28;20829;-77
2022/04/03 13:23:06;;;;;;;6.47;4.50;;;;;;;;;;5036296;28;20971;-78
2022/04/03 13:25:33;;;;;;;5.33;3.97;;;;;;;;;;5036228;28;21020;-74
2022/04/03 13:27:59;;;;;;;6.10;3.93;;;;;;;;;;5036084;28;20443;-77
2022/04/03 13:30:24;;;;;;;6.87;4.73;;;;;;;;;;5036112;28;20857;-78
2022/04/03 13:32:50;;;;;;;5.87;4.30;;;;;;;;;;5036127;28;20410;-78
2022/04/03 13:35:17;;;;;;;5.30;4.10;;;;;;;;;;5036219;28;20805;-79
2022/04/03 13:37:43;;;;;;;6.28;4.57;;;;;;;;;;5036093;28;20494;-78
2022/04/03 13:40:09;;;;;;;8.57;4.33;;;;;;;;;;5036069;28;20198;-79
2022/04/03 13:42:35;;;;;;;6.07;4.27;;;;;;;;;;5035867;28;20451;-77
2022/04/03 13:45:01;;;;;;;7.20;4.80;;;;;;;;;;5033688;28;20483;-77
2022/04/03 13:47:27;;;;;;;7.50;4.37;;;;;;;;;;5035876;28;20405;-80
2022/04/03 13:49:53;;;;;;;5.90;4.00;;;;;;;;;;5035865;28;20440;-78
2022/04/03 13:52:20;;;;;;;5.43;4.10;;;;;;;;;;5035747;28;20426;-78
2022/04/03 13:54:46;;;;;;;4.90;3.63;;;;;;;;;;5035828;28;20411;-81
2022/04/03 13:57:12;;;;;;;6.20;3.97;;;;;;;;;;5035700;28;20415;-83
2022/04/03 13:59:38;;;;;;;6.23;3.93;;;;;;;;;;5035605;28;20444;-77
2022/04/03 14:02:04;;;;;;;4.90;3.63;;;;;;;;;;5035464;28;20494;-78
2022/04/03 14:04:30;;;;;;;6.80;4.40;;;;;;;;;;5035264;28;20479;-78
2022/04/03 14:06:56;;;;;;;6.13;4.23;;;;;;;;;;5034181;28;20415;-75
2022/04/03 14:09:22;;;;;;;7.27;4.27;;;;;;;;;;5035429;28;20899;-77
2022/04/03 14:11:48;;;;;;;5.20;4.40;;;;;;;;;;5035548;28;20424;-80
2022/04/03 14:14:14;;;;;;;6.53;4.30;;;;;;;;;;5034179;28;20400;-76
2022/04/03 14:16:40;;;;;;;7.37;4.77;;;;;;;;;;5035530;28;20427;-78
2022/04/03 14:19:06;;;;;;;10.90;4.77;;;;;;;;;;5035265;28;20395;-75
2022/04/03 14:21:32;;;;;;;7.10;4.10;;;;;;;;;;5035332;28;20415;-80
2022/04/03 14:23:59;;;;;;;5.00;3.93;;;;;;;;;;5035241;28;20406;-77
2022/04/03 14:26:26;;;;;;;5.57;3.60;;;;;;;;;;5033950;28;20419;-78
2022/04/03 14:28:52;;;;;;;4.80;3.80;;;;;;;;;;5035236;28;20505;-78
2022/04/03 14:31:18;;;;;;;4.53;4.00;;;;;;;;;;5034973;28;20523;-77
2022/04/03 14:33:44;;;;;;;6.27;4.37;;;;;;;;;;5035078;28;20534;-75